Accueil
METAR-TAF:

METAR-TAF

Aéroports :

Karâchi, Pakistan

Aéroport international Jinnah

latitude: 24-54N, longitude: 067-08E, altitude: 21 m

Observation

Le bulletin a été fait il y a 58 minutes, à 02:55 UTC
Vent 4 kt de nord/nord-ouest
Température 27°C
Humidité 54%
Pression 1012 hPa
Visibilité: 3000 m
brume sèche

METAR: OPKC 230255Z 33004KT 3000 HZ NSC 27/17 Q1012 NOSIG

Heure: 08:53 (03:53 UTC)

Prévision

Le bulletin a été fait il y a 3 heures et 23 minutes, à 00:30 UTC
Prévision valable du 23 à 03 UTC au 23 à 12 UTC
Vent 5 kt de ouest/nord-ouest avec des rafales jusqu'à 15 kt
Visibilité: 6000 m

TAF: OPKC 230030Z 2303/2312 29005G15KT 6000 NSC

Observations et prévisions météorologiques de plus de 4000 aéroports (messages METAR et TAF).

Les stations disponibles sont représentées par des disques jaunes et rouges sur la carte.

Passer la souris dessus pour voir le nom de la station.

Cliquer dessus pour voir les observations et prévisions météorologiques.

Pour changer de carte: cliquez sur les boutons verts avec une croix noire pour zoomer, sur le bouton vert avec un tiret pour effectuer un zoom arrière, ou sur les flèches vertes pour les cartes adjacentes.


METAR-TAF: